createdAt,value
2023-04-18T00:02:17.366Z,42.88
2023-04-18T00:04:47.246Z,42.94
2023-04-18T00:07:16.929Z,42.93
2023-04-18T00:09:45.632Z,42.95
2023-04-18T00:12:15.496Z,43.02
2023-04-18T00:14:43.888Z,43.13
2023-04-18T00:17:13.491Z,43.19
2023-04-18T00:19:43.359Z,43.16
2023-04-18T00:22:11.813Z,43.12
2023-04-18T00:24:40.949Z,43.26
2023-04-18T00:27:09.295Z,43.26
2023-04-18T00:29:40.554Z,43.30
2023-04-18T00:32:09.145Z,43.17
2023-04-18T00:34:37.652Z,43.30
2023-04-18T00:37:05.935Z,43.28
2023-04-18T00:39:36.204Z,43.49
2023-04-18T00:42:04.864Z,43.42
2023-04-18T00:44:33.703Z,43.35
2023-04-18T00:47:03.457Z,43.35
2023-04-18T00:49:32.133Z,43.50
2023-04-18T00:52:01.368Z,43.47
2023-04-18T00:54:30.202Z,43.47
2023-04-18T00:56:58.589Z,43.35
2023-04-18T00:59:27.059Z,43.42
2023-04-18T01:01:55.644Z,43.62
2023-04-18T01:04:25.513Z,43.58
2023-04-18T01:06:54.387Z,43.61
2023-04-18T01:09:24.887Z,43.63
2023-04-18T01:11:53.303Z,43.76
2023-04-18T01:14:22.642Z,43.68
2023-04-18T01:16:51.082Z,43.70
2023-04-18T01:19:19.472Z,43.61
2023-04-18T01:21:49.091Z,43.61
2023-04-18T01:24:19.481Z,43.66
2023-04-18T01:26:48.639Z,43.68
2023-04-18T01:29:17.010Z,43.85
2023-04-18T01:31:46.090Z,43.76
2023-04-18T01:34:14.882Z,43.98
2023-04-18T01:36:43.454Z,43.91
2023-04-18T01:39:12.273Z,43.67
2023-04-18T01:41:43.363Z,43.93
2023-04-18T01:44:12.042Z,43.84
2023-04-18T01:46:40.958Z,43.96
2023-04-18T01:49:09.988Z,43.86
2023-04-18T01:51:39.906Z,43.83
2023-04-18T01:54:08.305Z,43.91
2023-04-18T01:56:36.693Z,44.02
2023-04-18T01:59:06.582Z,43.88
2023-04-18T02:01:34.977Z,44.02
2023-04-18T02:04:03.332Z,43.96
2023-04-18T02:06:31.881Z,43.99
2023-04-18T02:09:00.180Z,44.02
2023-04-18T02:11:28.566Z,43.93
2023-04-18T02:13:57.003Z,43.97
2023-04-18T02:16:26.768Z,43.89
2023-04-18T02:18:55.103Z,44.07
2023-04-18T02:21:24.453Z,43.95
2023-04-18T02:23:52.829Z,44.09
2023-04-18T02:26:21.185Z,44.05
2023-04-18T02:28:49.574Z,44.03
2023-04-18T02:31:18.537Z,44.10
2023-04-18T02:33:48.383Z,44.14
2023-04-18T02:36:16.831Z,44.18
2023-04-18T02:38:45.994Z,44.15
2023-04-18T02:41:17.543Z,44.07
2023-04-18T02:43:45.974Z,44.18
2023-04-18T02:46:14.513Z,44.26
2023-04-18T02:48:42.925Z,44.30
2023-04-18T02:51:12.658Z,44.12
2023-04-18T02:53:40.972Z,44.25
2023-04-18T02:56:09.641Z,44.08
2023-04-18T02:58:37.985Z,44.26
2023-04-18T03:01:06.547Z,44.42
2023-04-18T03:03:35.132Z,44.27
2023-04-18T03:06:03.621Z,44.34
2023-04-18T03:08:33.360Z,44.14
2023-04-18T03:11:01.876Z,44.33
2023-04-18T03:13:30.369Z,44.24
2023-04-18T03:15:58.959Z,44.45
2023-04-18T03:18:27.405Z,44.41
2023-04-18T03:20:55.690Z,44.34
2023-04-18T03:23:24.028Z,44.42
2023-04-18T03:25:53.868Z,44.31
2023-04-18T03:28:22.283Z,44.32
2023-04-18T03:30:50.771Z,44.58
2023-04-18T03:33:19.190Z,44.48
2023-04-18T03:35:47.613Z,44.63
2023-04-18T03:38:16.014Z,44.49
2023-04-18T03:40:44.591Z,44.52
2023-04-18T03:43:14.280Z,44.46
2023-04-18T03:45:44.144Z,44.44
2023-04-18T03:48:12.516Z,44.71
2023-04-18T03:50:41.038Z,44.54
2023-04-18T03:53:09.412Z,44.60
2023-04-18T03:55:37.860Z,44.45
2023-04-18T03:58:06.340Z,44.73
2023-04-18T04:00:36.070Z,44.50
2023-04-18T04:03:04.597Z,44.70
2023-04-18T04:05:33.156Z,44.58
2023-04-18T04:08:01.546Z,44.59
2023-04-18T04:10:30.012Z,44.58
2023-04-18T04:12:58.293Z,44.73
2023-04-18T04:15:26.736Z,44.50
2023-04-18T04:17:56.492Z,44.75
2023-04-18T04:20:25.858Z,44.55
2023-04-18T04:22:55.304Z,44.65
2023-04-18T04:25:24.634Z,44.92
2023-04-18T04:27:53.727Z,44.79
2023-04-18T04:30:22.790Z,44.82
2023-04-18T04:32:51.276Z,44.65
2023-04-18T04:35:21.121Z,44.69
2023-04-18T04:37:50.735Z,44.88
2023-04-18T04:40:19.272Z,44.99
2023-04-18T04:42:49.214Z,45.03
2023-04-18T04:45:18.095Z,45.04
2023-04-18T04:47:46.493Z,44.96
2023-04-18T04:50:16.316Z,45.09
2023-04-18T04:52:46.056Z,45.13
2023-04-18T04:55:14.445Z,45.14
2023-04-18T04:57:42.840Z,45.02
2023-04-18T05:00:13.801Z,45.26
2023-04-18T05:02:42.232Z,45.23
2023-04-18T05:05:10.842Z,45.20
2023-04-18T05:07:39.220Z,45.38
2023-04-18T05:10:10.205Z,45.32
2023-04-18T05:12:38.580Z,45.41
2023-04-18T05:15:08.411Z,45.47
2023-04-18T05:17:36.815Z,45.52
2023-04-18T05:20:06.206Z,45.66
2023-04-18T05:22:34.521Z,45.58
2023-04-18T05:25:03.017Z,45.60
2023-04-18T05:27:32.696Z,45.57
2023-04-18T05:30:01.036Z,45.67
2023-04-18T05:32:29.378Z,45.74
2023-04-18T05:34:57.812Z,45.54
2023-04-18T05:37:26.194Z,45.58
2023-04-18T05:39:54.471Z,45.67
2023-04-18T05:42:22.832Z,45.62
2023-04-18T05:44:52.576Z,45.63
2023-04-18T05:47:21.232Z,45.68
2023-04-18T05:49:49.606Z,45.62
2023-04-18T05:52:17.980Z,45.61
2023-04-18T05:54:46.261Z,45.61
2023-04-18T05:57:14.588Z,45.53
2023-04-18T05:59:42.935Z,45.59
2023-04-18T06:02:14.201Z,45.66
2023-04-18T06:04:43.936Z,45.59
2023-04-18T06:07:12.575Z,45.67
2023-04-18T06:09:40.878Z,45.44
2023-04-18T06:12:09.349Z,45.57
2023-04-18T06:14:37.711Z,45.42
2023-04-18T06:17:07.752Z,45.48
2023-04-18T06:19:37.596Z,45.27
2023-04-18T06:22:06.125Z,45.23
2023-04-18T06:24:34.526Z,45.13
2023-04-18T06:27:03.081Z,45.27
2023-04-18T06:29:33.318Z,45.11
2023-04-18T06:32:01.963Z,44.82
2023-04-18T06:34:30.438Z,44.91
2023-04-18T06:37:00.216Z,44.82
2023-04-18T06:39:28.912Z,44.74
2023-04-18T06:41:58.036Z,44.55
2023-04-18T06:44:26.455Z,44.70
2023-04-18T06:46:54.868Z,44.67
2023-04-18T06:49:26.431Z,44.59
2023-04-18T06:51:55.180Z,44.85
2023-04-18T06:54:25.061Z,44.82
2023-04-18T06:56:54.562Z,44.78
2023-04-18T06:59:23.416Z,44.66
2023-04-18T07:01:52.609Z,44.63
2023-04-18T07:04:21.330Z,44.55
2023-04-18T07:06:49.747Z,44.63
2023-04-18T07:09:18.120Z,44.66
2023-04-18T07:11:47.846Z,44.49
2023-04-18T07:14:16.498Z,44.48
2023-04-18T07:16:45.039Z,44.47
2023-04-18T07:19:13.598Z,44.29
2023-04-18T07:21:43.784Z,44.33
2023-04-18T07:24:13.531Z,44.30
2023-04-18T07:26:42.524Z,44.06
2023-04-18T07:29:12.324Z,44.13
2023-04-18T07:31:40.670Z,44.01
2023-04-18T07:34:09.190Z,44.04
2023-04-18T07:36:38.497Z,44.04
2023-04-18T07:39:06.954Z,44.22
2023-04-18T07:41:35.422Z,44.30
2023-04-18T07:44:04.128Z,44.18
2023-04-18T07:46:34.162Z,44.10
2023-04-18T07:49:03.637Z,44.03
2023-04-18T07:51:32.477Z,44.15
2023-04-18T07:54:01.395Z,43.97
2023-04-18T07:56:29.951Z,43.85
2023-04-18T07:58:58.303Z,43.98
2023-04-18T08:01:27.330Z,44.11
2023-04-18T08:03:57.963Z,44.10
2023-04-18T08:06:27.096Z,44.03
2023-04-18T08:08:55.635Z,43.79
2023-04-18T08:11:24.020Z,43.67
2023-04-18T08:13:52.400Z,43.69
2023-04-18T08:16:21.229Z,43.67
2023-04-18T08:18:49.645Z,43.53
2023-04-18T08:21:19.806Z,43.58
2023-04-18T08:23:48.281Z,43.40
2023-04-18T08:26:16.673Z,43.36
2023-04-18T08:28:46.596Z,43.41
2023-04-18T08:31:16.441Z,43.15
2023-04-18T08:33:44.891Z,43.00
2023-04-18T08:36:14.117Z,42.90
2023-04-18T08:38:43.895Z,42.89
2023-04-18T08:41:12.438Z,42.87
2023-04-18T08:43:40.859Z,42.97
2023-04-18T08:46:09.258Z,43.08
2023-04-18T08:48:38.121Z,43.02
2023-04-18T08:51:07.016Z,42.93
2023-04-18T08:53:35.631Z,42.67
2023-04-18T08:56:05.568Z,42.42
2023-04-18T08:58:35.001Z,42.53
2023-04-18T09:01:03.606Z,42.58
2023-04-18T09:03:40.743Z,42.27
2023-04-18T09:06:13.903Z,42.00
2023-04-18T09:08:44.545Z,41.69
2023-04-18T09:11:26.047Z,41.32
2023-04-18T09:13:56.414Z,41.42
2023-04-18T09:16:25.443Z,40.77
2023-04-18T09:19:14.911Z,40.75
2023-04-18T09:21:46.329Z,40.57
2023-04-18T09:24:21.120Z,40.19
2023-04-18T09:26:53.839Z,40.40
2023-04-18T09:29:23.628Z,39.73
2023-04-18T09:32:03.178Z,39.55
2023-04-18T09:34:34.201Z,39.45
2023-04-18T09:37:11.486Z,39.50
2023-04-18T09:39:41.686Z,39.31
2023-04-18T09:42:11.568Z,39.10
2023-04-18T09:44:58.511Z,38.42
2023-04-18T09:47:28.912Z,38.55
2023-04-18T09:49:57.472Z,38.58
2023-04-18T09:52:26.929Z,38.58
2023-04-18T09:55:00.853Z,38.66
2023-04-18T09:57:32.658Z,38.90
2023-04-18T10:00:10.661Z,38.17
2023-04-18T10:02:52.595Z,38.46
2023-04-18T10:05:27.387Z,37.87
2023-04-18T10:07:57.003Z,37.89
2023-04-18T10:10:26.376Z,37.85
2023-04-18T10:12:58.230Z,37.41
2023-04-18T10:15:29.234Z,37.07
2023-04-18T10:18:05.280Z,37.05
2023-04-18T10:20:35.983Z,36.78
2023-04-18T10:23:36.265Z,36.80
2023-04-18T10:26:05.595Z,36.91
2023-04-18T10:28:55.293Z,36.82
2023-04-18T10:31:24.681Z,36.59
2023-04-18T10:34:04.593Z,35.73
2023-04-18T10:36:34.663Z,36.61
2023-04-18T10:39:20.637Z,36.18
2023-04-18T10:41:51.559Z,36.27
2023-04-18T10:44:24.938Z,36.27
2023-04-18T10:47:24.683Z,36.26
2023-04-18T10:50:05.908Z,36.01
2023-04-18T10:52:35.916Z,35.88
2023-04-18T10:55:25.720Z,36.19
2023-04-18T10:57:56.528Z,35.52
2023-04-18T11:00:26.784Z,35.30
2023-04-18T11:02:57.914Z,35.20
2023-04-18T11:05:29.568Z,34.77
2023-04-18T11:07:58.002Z,34.73
2023-04-18T11:10:28.348Z,34.23
2023-04-18T11:12:59.300Z,34.18
2023-04-18T11:15:30.868Z,34.53
2023-04-18T11:18:02.613Z,34.46
2023-04-18T11:20:38.341Z,34.68
2023-04-18T11:23:19.739Z,34.44
2023-04-18T11:25:51.472Z,34.52
2023-04-18T11:28:22.162Z,34.69
2023-04-18T11:30:52.088Z,34.11
2023-04-18T11:33:20.605Z,34.06
2023-04-18T11:35:49.037Z,34.39
2023-04-18T11:38:18.630Z,34.72
2023-04-18T11:40:49.965Z,34.46
2023-04-18T11:43:22.965Z,34.46
2023-04-18T11:45:57.837Z,34.88
2023-04-18T11:48:35.013Z,34.66
2023-04-18T11:51:03.444Z,34.52
2023-04-18T11:53:35.574Z,34.47
2023-04-18T11:56:04.634Z,34.79
2023-04-18T11:58:33.656Z,34.83
2023-04-18T12:01:18.380Z,34.84
2023-04-18T12:04:02.388Z,34.43
2023-04-18T12:06:49.052Z,34.35
2023-04-18T12:09:18.455Z,34.05
2023-04-18T12:11:59.295Z,34.16
2023-04-18T12:14:28.744Z,34.00
2023-04-18T12:16:58.502Z,34.15
2023-04-18T12:19:28.744Z,34.56
2023-04-18T12:22:00.514Z,34.45
2023-04-18T12:24:29.899Z,34.74
2023-04-18T12:26:58.634Z,35.13
2023-04-18T12:29:28.426Z,35.42
2023-04-18T12:31:58.314Z,35.53
2023-04-18T12:34:26.679Z,35.64
2023-04-18T12:36:55.301Z,35.41
2023-04-18T12:39:23.633Z,35.74
2023-04-18T12:41:51.979Z,35.88
2023-04-18T12:44:20.926Z,36.09
2023-04-18T12:46:49.353Z,36.62
2023-04-18T12:49:19.066Z,36.80
2023-04-18T12:51:47.452Z,36.89
2023-04-18T12:54:16.090Z,36.71
2023-04-18T12:56:46.188Z,37.17
2023-04-18T12:59:14.756Z,36.91
2023-04-18T13:01:43.469Z,37.35
2023-04-18T13:04:13.160Z,37.36
2023-04-18T13:06:43.266Z,37.34
2023-04-18T13:09:12.140Z,37.93
2023-04-18T13:11:40.626Z,37.81
2023-04-18T13:14:09.046Z,38.34
2023-04-18T13:16:37.435Z,38.36
2023-04-18T13:19:05.904Z,38.52
2023-04-18T13:21:34.313Z,38.49
2023-04-18T13:24:04.175Z,38.76
2023-04-18T13:26:35.662Z,38.95
2023-04-18T13:29:04.639Z,39.08
2023-04-18T13:31:33.074Z,39.04
2023-04-18T13:34:01.479Z,39.26
2023-04-18T13:36:29.902Z,39.63
2023-04-18T13:38:58.693Z,39.56
2023-04-18T13:41:29.053Z,39.52
2023-04-18T13:43:57.484Z,39.64
2023-04-18T13:46:26.699Z,39.32
2023-04-18T13:48:55.335Z,39.69
2023-04-18T13:51:23.803Z,39.67
2023-04-18T13:53:52.424Z,39.95
2023-04-18T13:56:20.927Z,40.10
2023-04-18T13:58:51.093Z,40.33
2023-04-18T14:01:19.918Z,40.27
2023-04-18T14:03:48.554Z,40.47
2023-04-18T14:06:17.091Z,40.47
2023-04-18T14:08:45.501Z,40.44
2023-04-18T14:11:13.785Z,40.57
2023-04-18T14:13:42.242Z,40.73
2023-04-18T14:16:12.149Z,40.91
2023-04-18T14:18:40.857Z,41.13
2023-04-18T14:21:09.241Z,41.26
2023-04-18T14:23:37.642Z,41.17
2023-04-18T14:26:06.915Z,41.48
2023-04-18T14:28:35.398Z,41.43
2023-04-18T14:31:06.470Z,41.68
2023-04-18T14:33:36.367Z,41.69
2023-04-18T14:36:05.038Z,41.45
2023-04-18T14:38:33.492Z,42.03
2023-04-18T14:41:02.192Z,41.91
2023-04-18T14:43:30.619Z,41.83
2023-04-18T14:45:59.710Z,42.02
2023-04-18T14:48:28.690Z,42.20
2023-04-18T14:51:02.633Z,42.23
2023-04-18T14:53:31.162Z,42.24
2023-04-18T14:55:59.605Z,42.34
2023-04-18T14:58:27.864Z,42.50
2023-04-18T15:00:56.399Z,42.62
2023-04-18T15:03:24.933Z,42.76
2023-04-18T15:05:53.862Z,42.68
2023-04-18T15:08:23.747Z,42.97
2023-04-18T15:10:52.225Z,43.67
2023-04-18T15:13:20.703Z,43.86
2023-04-18T15:15:53.982Z,44.11
2023-04-18T15:18:22.323Z,44.00
2023-04-18T15:20:50.741Z,44.08
2023-04-18T15:23:19.152Z,44.10
2023-04-18T15:25:48.916Z,44.35
2023-04-18T15:28:18.662Z,44.34
2023-04-18T15:30:47.569Z,44.47
2023-04-18T15:33:17.981Z,44.65
2023-04-18T15:35:46.486Z,44.67
2023-04-18T15:38:15.064Z,44.88
2023-04-18T15:40:44.735Z,45.06
2023-04-18T15:43:17.133Z,45.20
2023-04-18T15:45:45.781Z,45.38
2023-04-18T15:48:14.216Z,45.59
2023-04-18T15:50:43.346Z,45.69
2023-04-18T15:53:11.747Z,45.70
2023-04-18T15:55:40.292Z,45.82
2023-04-18T15:58:08.681Z,45.99
2023-04-18T16:00:38.528Z,46.23
2023-04-18T16:03:09.887Z,47.17
2023-04-18T16:05:38.391Z,47.61
2023-04-18T16:08:09.057Z,48.35
2023-04-18T16:10:37.744Z,48.70
2023-04-18T16:13:06.776Z,48.98
2023-04-18T16:15:36.115Z,49.63
2023-04-18T16:18:06.021Z,50.41
2023-04-18T16:20:34.533Z,50.69
2023-04-18T16:23:03.108Z,50.78
2023-04-18T16:25:31.804Z,51.55
2023-04-18T16:28:00.251Z,52.18
2023-04-18T16:30:28.598Z,52.04
2023-04-18T16:32:57.123Z,52.58
2023-04-18T16:35:27.320Z,52.74
2023-04-18T16:37:55.713Z,52.99
2023-04-18T16:40:24.355Z,53.26
2023-04-18T16:42:52.836Z,53.47
2023-04-18T16:45:21.885Z,53.74
2023-04-18T16:47:50.925Z,53.55
2023-04-18T16:50:19.927Z,53.48
2023-04-18T16:52:50.026Z,53.48
2023-04-18T16:55:18.858Z,53.30
2023-04-18T16:57:47.881Z,53.55
2023-04-18T17:00:16.939Z,53.22
2023-04-18T17:02:47.319Z,53.19
2023-04-18T17:05:16.270Z,53.13
2023-04-18T17:07:47.896Z,53.05
2023-04-18T17:10:18.302Z,53.30
2023-04-18T17:12:49.191Z,53.30
2023-04-18T17:15:20.259Z,53.24
2023-04-18T17:17:48.902Z,53.20
2023-04-18T17:20:18.051Z,53.10
2023-04-18T17:22:46.895Z,52.96
2023-04-18T17:25:15.560Z,52.92
2023-04-18T17:27:45.821Z,52.86
2023-04-18T17:30:15.280Z,53.03
2023-04-18T17:32:46.313Z,52.81
2023-04-18T17:35:15.729Z,52.72
2023-04-18T17:37:44.843Z,52.84
2023-04-18T17:40:15.815Z,52.64
2023-04-18T17:42:45.978Z,52.61
2023-04-18T17:45:15.010Z,52.74
2023-04-18T17:47:44.461Z,52.51
2023-04-18T17:50:13.661Z,52.75
2023-04-18T17:52:42.222Z,52.43
2023-04-18T17:55:12.109Z,52.35
2023-04-18T17:57:42.334Z,52.31
2023-04-18T18:00:16.871Z,52.29
2023-04-18T18:02:47.917Z,52.27
2023-04-18T18:05:17.831Z,51.90
2023-04-18T18:07:49.114Z,51.99
2023-04-18T18:10:22.921Z,51.93
2023-04-18T18:12:53.733Z,51.93
2023-04-18T18:15:24.906Z,52.18
2023-04-18T18:17:55.532Z,52.18
2023-04-18T18:20:29.170Z,52.14
2023-04-18T18:22:59.939Z,52.20
2023-04-18T18:25:31.651Z,52.07
2023-04-18T18:28:02.653Z,51.95
2023-04-18T18:30:34.401Z,51.87
2023-04-18T18:33:04.204Z,51.66
2023-04-18T18:35:34.405Z,51.76
2023-04-18T18:38:04.703Z,51.80
2023-04-18T18:40:34.535Z,51.68
2023-04-18T18:43:05.423Z,51.58
2023-04-18T18:45:36.618Z,51.38
2023-04-18T18:48:08.042Z,51.27
2023-04-18T18:50:43.084Z,51.30
2023-04-18T18:53:17.307Z,51.33
2023-04-18T18:55:47.167Z,51.05
2023-04-18T18:58:16.080Z,51.07
2023-04-18T19:00:49.430Z,51.11
2023-04-18T19:03:22.270Z,51.22
2023-04-18T19:05:57.073Z,51.09
2023-04-18T19:08:30.386Z,51.13
2023-04-18T19:11:02.508Z,50.82
2023-04-18T19:13:33.542Z,51.10
2023-04-18T19:16:04.872Z,50.82
2023-04-18T19:18:36.216Z,50.82
2023-04-18T19:21:05.744Z,50.63
2023-04-18T19:23:37.342Z,50.75
2023-04-18T19:26:08.001Z,50.79
2023-04-18T19:28:38.225Z,50.79
2023-04-18T19:31:10.129Z,50.60
2023-04-18T19:33:41.865Z,50.53
2023-04-18T19:36:11.703Z,50.47
2023-04-18T19:38:42.080Z,50.21
2023-04-18T19:41:11.969Z,50.27
2023-04-18T19:43:43.217Z,50.51
2023-04-18T19:46:21.748Z,50.34
2023-04-18T19:48:51.538Z,50.22
2023-04-18T19:51:21.914Z,50.09
2023-04-18T19:53:51.320Z,50.04
2023-04-18T19:56:20.574Z,50.18
2023-04-18T19:58:49.841Z,50.22
2023-04-18T20:01:24.903Z,50.31
2023-04-18T20:03:59.106Z,50.14
2023-04-18T20:06:29.180Z,50.07
2023-04-18T20:08:59.149Z,50.16
2023-04-18T20:11:29.363Z,50.28
2023-04-18T20:13:58.834Z,50.47
2023-04-18T20:16:29.020Z,50.62
2023-04-18T20:18:58.428Z,50.43
2023-04-18T20:21:28.079Z,50.84
2023-04-18T20:24:00.258Z,50.62
2023-04-18T20:26:28.760Z,50.74
2023-04-18T20:28:57.567Z,50.75
2023-04-18T20:31:29.464Z,50.79
2023-04-18T20:33:58.681Z,50.64
2023-04-18T20:36:29.337Z,50.36
2023-04-18T20:38:58.796Z,50.39
2023-04-18T20:41:29.836Z,50.45
2023-04-18T20:43:59.991Z,50.46
2023-04-18T20:46:30.704Z,50.36
2023-04-18T20:49:00.953Z,50.25
2023-04-18T20:51:29.897Z,50.00
2023-04-18T20:53:58.368Z,50.18
2023-04-18T20:56:26.790Z,50.28
2023-04-18T20:58:55.445Z,50.00
2023-04-18T21:01:24.378Z,50.28
2023-04-18T21:03:54.384Z,50.16
2023-04-18T21:06:23.050Z,50.05
2023-04-18T21:08:51.438Z,49.85
2023-04-18T21:11:19.837Z,50.15
2023-04-18T21:13:48.208Z,50.05
2023-04-18T21:16:16.633Z,50.22
2023-04-18T21:18:45.054Z,50.43
2023-04-18T21:21:14.868Z,50.41
2023-04-18T21:23:44.055Z,50.40
2023-04-18T21:26:14.108Z,50.24
2023-04-18T21:29:00.085Z,50.14
2023-04-18T21:31:32.911Z,50.25
2023-04-18T21:34:03.098Z,50.48
2023-04-18T21:36:33.563Z,49.97
2023-04-18T21:39:02.323Z,49.96
2023-04-18T21:41:30.839Z,49.91
2023-04-18T21:43:59.183Z,49.93
2023-04-18T21:46:27.713Z,50.01
2023-04-18T21:48:56.115Z,49.95
2023-04-18T21:51:24.516Z,49.81
2023-04-18T21:53:54.288Z,50.02
2023-04-18T21:56:22.659Z,49.88
2023-04-18T21:58:51.071Z,49.76
2023-04-18T22:01:19.521Z,49.97
2023-04-18T22:03:48.068Z,49.90
2023-04-18T22:06:17.208Z,49.82
2023-04-18T22:08:45.658Z,49.86
2023-04-18T22:11:15.809Z,49.81
2023-04-18T22:13:44.905Z,49.88
2023-04-18T22:16:13.528Z,49.78
2023-04-18T22:18:41.892Z,49.74
2023-04-18T22:21:10.627Z,49.68
2023-04-18T22:23:38.991Z,49.63
2023-04-18T22:26:07.576Z,49.54
2023-04-18T22:28:37.347Z,49.57
2023-04-18T22:31:06.272Z,49.48
2023-04-18T22:33:34.684Z,49.47
2023-04-18T22:36:03.101Z,49.54
2023-04-18T22:38:31.540Z,49.23
2023-04-18T22:41:00.845Z,49.28
2023-04-18T22:43:29.301Z,49.28
2023-04-18T22:45:59.130Z,49.16
2023-04-18T22:48:27.525Z,49.14
2023-04-18T22:50:55.855Z,49.06
2023-04-18T22:53:24.540Z,49.16
2023-04-18T22:55:52.916Z,49.22
2023-04-18T22:58:21.370Z,48.95
2023-04-18T23:00:49.703Z,49.20
2023-04-18T23:03:19.701Z,49.05
2023-04-18T23:05:48.117Z,49.01
2023-04-18T23:08:18.752Z,49.02
2023-04-18T23:10:47.178Z,49.07
2023-04-18T23:13:15.638Z,49.14
2023-04-18T23:15:44.060Z,48.89
2023-04-18T23:18:12.692Z,49.05
2023-04-18T23:20:42.431Z,49.00
2023-04-18T23:23:10.807Z,49.01
2023-04-18T23:25:39.312Z,49.07
2023-04-18T23:28:07.967Z,49.18
2023-04-18T23:30:37.904Z,49.07
2023-04-18T23:33:06.645Z,49.15
2023-04-18T23:35:35.169Z,48.96
2023-04-18T23:38:04.879Z,48.99
2023-04-18T23:40:33.313Z,48.87
2023-04-18T23:43:02.310Z,48.98
2023-04-18T23:45:31.105Z,48.83
2023-04-18T23:47:59.495Z,48.93
2023-04-18T23:50:28.006Z,49.02
2023-04-18T23:52:56.428Z,48.89
2023-04-18T23:55:26.200Z,49.13
2023-04-18T23:57:54.566Z,48.79
